sensor_id;sensor_type;location;lat;lon;timestamp;P1;durP1;ratioP1;P2;durP2;ratioP2
33076;SDS011;38790;51.964;5.924;2022-10-16T00:00:56;14.27;;;4.03;;
33076;SDS011;38790;51.964;5.924;2022-10-16T00:03:23;8.35;;;4.13;;
33076;SDS011;38790;51.964;5.924;2022-10-16T00:05:49;11.48;;;3.83;;
33076;SDS011;38790;51.964;5.924;2022-10-16T00:08:15;9.45;;;4.38;;
33076;SDS011;38790;51.964;5.924;2022-10-16T00:10:41;8.70;;;4.07;;
33076;SDS011;38790;51.964;5.924;2022-10-16T00:13:07;8.60;;;3.97;;
33076;SDS011;38790;51.964;5.924;2022-10-16T00:15:34;9.27;;;4.15;;
33076;SDS011;38790;51.964;5.924;2022-10-16T00:18:02;20.58;;;4.18;;
33076;SDS011;38790;51.964;5.924;2022-10-16T00:20:29;14.45;;;4.47;;
33076;SDS011;38790;51.964;5.924;2022-10-16T00:22:56;13.60;;;3.95;;
33076;SDS011;38790;51.964;5.924;2022-10-16T00:25:23;11.68;;;4.15;;
33076;SDS011;38790;51.964;5.924;2022-10-16T00:27:49;13.35;;;4.75;;
33076;SDS011;38790;51.964;5.924;2022-10-16T00:30:15;8.55;;;4.32;;
33076;SDS011;38790;51.964;5.924;2022-10-16T00:32:41;9.80;;;4.57;;
33076;SDS011;38790;51.964;5.924;2022-10-16T00:35:07;12.80;;;5.10;;
33076;SDS011;38790;51.964;5.924;2022-10-16T00:37:39;10.55;;;4.90;;
33076;SDS011;38790;51.964;5.924;2022-10-16T00:40:05;10.98;;;5.20;;
33076;SDS011;38790;51.964;5.924;2022-10-16T00:42:31;13.00;;;5.00;;
33076;SDS011;38790;51.964;5.924;2022-10-16T00:45:01;8.30;;;4.57;;
33076;SDS011;38790;51.964;5.924;2022-10-16T00:50:05;12.15;;;5.03;;
33076;SDS011;38790;51.964;5.924;2022-10-16T00:52:44;9.27;;;4.93;;
33076;SDS011;38790;51.964;5.924;2022-10-16T00:55:13;12.80;;;5.07;;
33076;SDS011;38790;51.964;5.924;2022-10-16T00:57:40;11.93;;;4.95;;
33076;SDS011;38790;51.964;5.924;2022-10-16T01:00:08;9.50;;;4.90;;
33076;SDS011;38790;51.964;5.924;2022-10-16T01:02:36;14.93;;;5.63;;
33076;SDS011;38790;51.964;5.924;2022-10-16T01:05:02;10.23;;;4.97;;
33076;SDS011;38790;51.964;5.924;2022-10-16T01:07:38;8.35;;;5.28;;
33076;SDS011;38790;51.964;5.924;2022-10-16T01:10:07;8.50;;;4.97;;
33076;SDS011;38790;51.964;5.924;2022-10-16T01:12:50;11.02;;;4.95;;
33076;SDS011;38790;51.964;5.924;2022-10-16T01:15:20;15.80;;;5.57;;
33076;SDS011;38790;51.964;5.924;2022-10-16T01:17:50;11.05;;;5.47;;
33076;SDS011;38790;51.964;5.924;2022-10-16T01:28:39;10.48;;;5.32;;
33076;SDS011;38790;51.964;5.924;2022-10-16T01:31:10;11.13;;;5.32;;
33076;SDS011;38790;51.964;5.924;2022-10-16T01:33:42;8.00;;;5.53;;
33076;SDS011;38790;51.964;5.924;2022-10-16T01:36:13;13.48;;;5.72;;
33076;SDS011;38790;51.964;5.924;2022-10-16T01:38:44;14.38;;;5.63;;
33076;SDS011;38790;51.964;5.924;2022-10-16T01:41:16;19.73;;;5.85;;
33076;SDS011;38790;51.964;5.924;2022-10-16T01:43:48;9.57;;;4.90;;
33076;SDS011;38790;51.964;5.924;2022-10-16T01:46:18;18.52;;;5.75;;
33076;SDS011;38790;51.964;5.924;2022-10-16T01:48:48;9.38;;;5.45;;
33076;SDS011;38790;51.964;5.924;2022-10-16T01:51:15;9.55;;;5.10;;
33076;SDS011;38790;51.964;5.924;2022-10-16T01:53:44;7.25;;;4.70;;
33076;SDS011;38790;51.964;5.924;2022-10-16T01:56:15;16.33;;;5.45;;
33076;SDS011;38790;51.964;5.924;2022-10-16T01:58:51;7.07;;;5.20;;
33076;SDS011;38790;51.964;5.924;2022-10-16T02:01:21;9.02;;;5.40;;
33076;SDS011;38790;51.964;5.924;2022-10-16T02:03:51;11.25;;;4.70;;
33076;SDS011;38790;51.964;5.924;2022-10-16T02:06:20;6.45;;;4.50;;
33076;SDS011;38790;51.964;5.924;2022-10-16T02:08:47;7.88;;;4.72;;
33076;SDS011;38790;51.964;5.924;2022-10-16T02:11:13;11.80;;;5.00;;
33076;SDS011;38790;51.964;5.924;2022-10-16T02:13:44;9.63;;;4.68;;
33076;SDS011;38790;51.964;5.924;2022-10-16T02:18:40;11.55;;;4.88;;
33076;SDS011;38790;51.964;5.924;2022-10-16T02:21:16;11.75;;;4.93;;
33076;SDS011;38790;51.964;5.924;2022-10-16T02:23:55;15.38;;;4.93;;
33076;SDS011;38790;51.964;5.924;2022-10-16T02:26:37;10.95;;;4.97;;
33076;SDS011;38790;51.964;5.924;2022-10-16T02:29:12;5.03;;;4.53;;
33076;SDS011;38790;51.964;5.924;2022-10-16T02:31:43;7.72;;;4.78;;
33076;SDS011;38790;51.964;5.924;2022-10-16T02:34:13;14.40;;;4.28;;
33076;SDS011;38790;51.964;5.924;2022-10-16T02:36:41;6.72;;;4.13;;
33076;SDS011;38790;51.964;5.924;2022-10-16T02:39:10;14.20;;;4.15;;
33076;SDS011;38790;51.964;5.924;2022-10-16T02:41:36;7.95;;;4.38;;
33076;SDS011;38790;51.964;5.924;2022-10-16T02:44:03;9.23;;;3.90;;
33076;SDS011;38790;51.964;5.924;2022-10-16T02:46:29;8.63;;;3.58;;
33076;SDS011;38790;51.964;5.924;2022-10-16T02:48:55;8.70;;;4.03;;
33076;SDS011;38790;51.964;5.924;2022-10-16T02:51:21;8.32;;;4.10;;
33076;SDS011;38790;51.964;5.924;2022-10-16T02:53:47;7.90;;;4.55;;
33076;SDS011;38790;51.964;5.924;2022-10-16T02:56:13;5.93;;;3.60;;
33076;SDS011;38790;51.964;5.924;2022-10-16T02:58:40;9.88;;;4.07;;
33076;SDS011;38790;51.964;5.924;2022-10-16T03:01:06;7.25;;;3.95;;
33076;SDS011;38790;51.964;5.924;2022-10-16T03:03:32;6.57;;;4.25;;
33076;SDS011;38790;51.964;5.924;2022-10-16T03:05:58;6.20;;;3.67;;
33076;SDS011;38790;51.964;5.924;2022-10-16T03:08:24;7.32;;;4.22;;
33076;SDS011;38790;51.964;5.924;2022-10-16T03:10:51;6.75;;;3.50;;
33076;SDS011;38790;51.964;5.924;2022-10-16T03:13:17;13.93;;;4.43;;
33076;SDS011;38790;51.964;5.924;2022-10-16T03:15:45;5.18;;;3.50;;
33076;SDS011;38790;51.964;5.924;2022-10-16T03:18:12;8.95;;;3.40;;
33076;SDS011;38790;51.964;5.924;2022-10-16T03:20:38;6.50;;;3.40;;
33076;SDS011;38790;51.964;5.924;2022-10-16T03:23:04;5.93;;;3.00;;
33076;SDS011;38790;51.964;5.924;2022-10-16T03:25:30;8.63;;;3.65;;
33076;SDS011;38790;51.964;5.924;2022-10-16T03:27:56;8.85;;;3.10;;
33076;SDS011;38790;51.964;5.924;2022-10-16T03:30:22;8.20;;;3.15;;
33076;SDS011;38790;51.964;5.924;2022-10-16T03:32:48;10.48;;;3.40;;
33076;SDS011;38790;51.964;5.924;2022-10-16T03:35:19;5.75;;;3.30;;
33076;SDS011;38790;51.964;5.924;2022-10-16T03:37:46;5.20;;;3.17;;
33076;SDS011;38790;51.964;5.924;2022-10-16T03:40:12;12.85;;;3.63;;
33076;SDS011;38790;51.964;5.924;2022-10-16T03:42:38;7.72;;;3.40;;
33076;SDS011;38790;51.964;5.924;2022-10-16T03:45:04;5.22;;;2.92;;
33076;SDS011;38790;51.964;5.924;2022-10-16T03:47:31;5.30;;;2.85;;
33076;SDS011;38790;51.964;5.924;2022-10-16T03:49:59;12.73;;;3.33;;
33076;SDS011;38790;51.964;5.924;2022-10-16T03:52:25;8.85;;;3.78;;
33076;SDS011;38790;51.964;5.924;2022-10-16T03:54:51;7.57;;;2.88;;
33076;SDS011;38790;51.964;5.924;2022-10-16T03:57:17;3.95;;;2.80;;
33076;SDS011;38790;51.964;5.924;2022-10-16T03:59:43;5.75;;;2.65;;
33076;SDS011;38790;51.964;5.924;2022-10-16T04:02:10;4.28;;;2.80;;
33076;SDS011;38790;51.964;5.924;2022-10-16T04:04:36;4.68;;;3.40;;
33076;SDS011;38790;51.964;5.924;2022-10-16T04:07:02;8.93;;;3.40;;
33076;SDS011;38790;51.964;5.924;2022-10-16T04:09:28;8.38;;;4.13;;
33076;SDS011;38790;51.964;5.924;2022-10-16T04:11:54;7.22;;;2.90;;
33076;SDS011;38790;51.964;5.924;2022-10-16T04:14:20;6.53;;;3.95;;
33076;SDS011;38790;51.964;5.924;2022-10-16T04:16:46;8.05;;;3.80;;
33076;SDS011;38790;51.964;5.924;2022-10-16T04:19:12;7.50;;;3.45;;
33076;SDS011;38790;51.964;5.924;2022-10-16T04:21:38;7.35;;;4.07;;
33076;SDS011;38790;51.964;5.924;2022-10-16T04:24:04;5.70;;;3.78;;
33076;SDS011;38790;51.964;5.924;2022-10-16T04:26:31;9.93;;;3.30;;
33076;SDS011;38790;51.964;5.924;2022-10-16T04:28:57;5.38;;;3.83;;
33076;SDS011;38790;51.964;5.924;2022-10-16T04:31:23;9.10;;;3.83;;
33076;SDS011;38790;51.964;5.924;2022-10-16T04:33:49;6.25;;;4.00;;
33076;SDS011;38790;51.964;5.924;2022-10-16T04:36:15;9.00;;;3.67;;
33076;SDS011;38790;51.964;5.924;2022-10-16T04:38:41;12.30;;;3.60;;
33076;SDS011;38790;51.964;5.924;2022-10-16T04:41:07;3.85;;;3.00;;
33076;SDS011;38790;51.964;5.924;2022-10-16T04:43:33;4.65;;;3.00;;
33076;SDS011;38790;51.964;5.924;2022-10-16T04:46:00;5.40;;;2.88;;
33076;SDS011;38790;51.964;5.924;2022-10-16T04:48:27;6.30;;;3.38;;
33076;SDS011;38790;51.964;5.924;2022-10-16T04:50:53;6.05;;;2.85;;
33076;SDS011;38790;51.964;5.924;2022-10-16T04:53:19;7.05;;;3.13;;
33076;SDS011;38790;51.964;5.924;2022-10-16T04:55:45;11.85;;;3.38;;
33076;SDS011;38790;51.964;5.924;2022-10-16T04:58:11;9.13;;;2.95;;
33076;SDS011;38790;51.964;5.924;2022-10-16T05:00:37;5.70;;;3.00;;
33076;SDS011;38790;51.964;5.924;2022-10-16T05:03:04;4.63;;;2.95;;
33076;SDS011;38790;51.964;5.924;2022-10-16T05:05:33;6.05;;;3.40;;
33076;SDS011;38790;51.964;5.924;2022-10-16T05:07:59;8.32;;;3.55;;
33076;SDS011;38790;51.964;5.924;2022-10-16T05:10:25;5.07;;;3.13;;
33076;SDS011;38790;51.964;5.924;2022-10-16T05:12:52;11.68;;;3.13;;
33076;SDS011;38790;51.964;5.924;2022-10-16T05:15:18;6.18;;;2.90;;
33076;SDS011;38790;51.964;5.924;2022-10-16T05:17:44;5.13;;;3.17;;
33076;SDS011;38790;51.964;5.924;2022-10-16T05:20:11;4.85;;;3.30;;
33076;SDS011;38790;51.964;5.924;2022-10-16T05:22:38;5.45;;;3.35;;
33076;SDS011;38790;51.964;5.924;2022-10-16T05:25:04;12.52;;;3.85;;
33076;SDS011;38790;51.964;5.924;2022-10-16T05:27:31;6.85;;;3.38;;
33076;SDS011;38790;51.964;5.924;2022-10-16T05:29:57;6.55;;;3.20;;
33076;SDS011;38790;51.964;5.924;2022-10-16T05:32:23;6.85;;;3.70;;
33076;SDS011;38790;51.964;5.924;2022-10-16T05:34:50;5.78;;;3.17;;
33076;SDS011;38790;51.964;5.924;2022-10-16T05:37:16;7.35;;;3.45;;
33076;SDS011;38790;51.964;5.924;2022-10-16T05:39:42;13.38;;;3.22;;
33076;SDS011;38790;51.964;5.924;2022-10-16T05:42:08;8.18;;;3.67;;
33076;SDS011;38790;51.964;5.924;2022-10-16T05:44:34;5.38;;;3.53;;
33076;SDS011;38790;51.964;5.924;2022-10-16T05:47:00;12.70;;;3.53;;
33076;SDS011;38790;51.964;5.924;2022-10-16T05:49:26;5.53;;;3.70;;
33076;SDS011;38790;51.964;5.924;2022-10-16T05:51:53;4.13;;;3.00;;
33076;SDS011;38790;51.964;5.924;2022-10-16T05:54:19;14.40;;;3.72;;
33076;SDS011;38790;51.964;5.924;2022-10-16T05:56:45;5.53;;;3.42;;
33076;SDS011;38790;51.964;5.924;2022-10-16T05:59:11;7.80;;;3.75;;
33076;SDS011;38790;51.964;5.924;2022-10-16T06:01:37;10.38;;;3.65;;
33076;SDS011;38790;51.964;5.924;2022-10-16T06:04:03;7.50;;;3.88;;
33076;SDS011;38790;51.964;5.924;2022-10-16T06:06:29;10.90;;;3.78;;
33076;SDS011;38790;51.964;5.924;2022-10-16T06:08:56;11.05;;;4.03;;
33076;SDS011;38790;51.964;5.924;2022-10-16T06:11:24;13.82;;;3.63;;
33076;SDS011;38790;51.964;5.924;2022-10-16T06:13:52;7.38;;;3.90;;
33076;SDS011;38790;51.964;5.924;2022-10-16T06:16:20;8.20;;;3.72;;
33076;SDS011;38790;51.964;5.924;2022-10-16T06:18:46;10.60;;;4.05;;
33076;SDS011;38790;51.964;5.924;2022-10-16T06:21:16;6.63;;;3.92;;
33076;SDS011;38790;51.964;5.924;2022-10-16T06:23:44;9.68;;;4.45;;
33076;SDS011;38790;51.964;5.924;2022-10-16T06:26:14;20.00;;;4.00;;
33076;SDS011;38790;51.964;5.924;2022-10-16T06:28:43;14.20;;;4.38;;
33076;SDS011;38790;51.964;5.924;2022-10-16T06:31:09;15.68;;;5.32;;
33076;SDS011;38790;51.964;5.924;2022-10-16T06:33:37;14.27;;;5.00;;
33076;SDS011;38790;51.964;5.924;2022-10-16T06:36:04;9.73;;;4.78;;
33076;SDS011;38790;51.964;5.924;2022-10-16T06:38:37;9.23;;;5.03;;
33076;SDS011;38790;51.964;5.924;2022-10-16T06:41:04;12.02;;;5.05;;
33076;SDS011;38790;51.964;5.924;2022-10-16T06:43:31;7.22;;;4.78;;
33076;SDS011;38790;51.964;5.924;2022-10-16T06:45:59;9.55;;;5.15;;
33076;SDS011;38790;51.964;5.924;2022-10-16T06:48:27;12.85;;;5.05;;
33076;SDS011;38790;51.964;5.924;2022-10-16T06:50:57;9.90;;;4.28;;
33076;SDS011;38790;51.964;5.924;2022-10-16T06:53:24;10.43;;;4.65;;
33076;SDS011;38790;51.964;5.924;2022-10-16T06:55:52;4.10;;;3.70;;
33076;SDS011;38790;51.964;5.924;2022-10-16T06:58:18;11.90;;;3.83;;
33076;SDS011;38790;51.964;5.924;2022-10-16T07:00:44;11.52;;;3.78;;
33076;SDS011;38790;51.964;5.924;2022-10-16T07:03:10;6.75;;;3.33;;
33076;SDS011;38790;51.964;5.924;2022-10-16T07:05:37;8.13;;;3.30;;
33076;SDS011;38790;51.964;5.924;2022-10-16T07:08:07;4.75;;;3.20;;
33076;SDS011;38790;51.964;5.924;2022-10-16T07:10:34;13.93;;;3.35;;
33076;SDS011;38790;51.964;5.924;2022-10-16T07:13:01;4.40;;;2.63;;
33076;SDS011;38790;51.964;5.924;2022-10-16T07:15:27;9.63;;;3.63;;
33076;SDS011;38790;51.964;5.924;2022-10-16T07:17:53;12.23;;;3.78;;
33076;SDS011;38790;51.964;5.924;2022-10-16T07:20:19;7.30;;;2.97;;
33076;SDS011;38790;51.964;5.924;2022-10-16T07:22:45;7.43;;;3.20;;
33076;SDS011;38790;51.964;5.924;2022-10-16T07:25:12;4.20;;;2.63;;
33076;SDS011;38790;51.964;5.924;2022-10-16T07:27:38;7.60;;;3.25;;
33076;SDS011;38790;51.964;5.924;2022-10-16T07:30:04;14.30;;;3.70;;
33076;SDS011;38790;51.964;5.924;2022-10-16T07:32:31;7.45;;;3.20;;
33076;SDS011;38790;51.964;5.924;2022-10-16T07:34:57;9.35;;;2.70;;
33076;SDS011;38790;51.964;5.924;2022-10-16T07:37:23;14.85;;;3.22;;
33076;SDS011;38790;51.964;5.924;2022-10-16T07:39:49;6.93;;;3.25;;
33076;SDS011;38790;51.964;5.924;2022-10-16T07:42:15;6.75;;;3.22;;
33076;SDS011;38790;51.964;5.924;2022-10-16T07:44:42;6.68;;;3.10;;
33076;SDS011;38790;51.964;5.924;2022-10-16T07:47:08;12.95;;;3.20;;
33076;SDS011;38790;51.964;5.924;2022-10-16T07:49:34;8.63;;;3.63;;
33076;SDS011;38790;51.964;5.924;2022-10-16T07:52:00;6.93;;;3.20;;
33076;SDS011;38790;51.964;5.924;2022-10-16T07:54:26;7.32;;;3.17;;
33076;SDS011;38790;51.964;5.924;2022-10-16T07:56:53;10.25;;;3.67;;
33076;SDS011;38790;51.964;5.924;2022-10-16T07:59:19;9.05;;;3.55;;
33076;SDS011;38790;51.964;5.924;2022-10-16T08:01:45;9.35;;;3.38;;
33076;SDS011;38790;51.964;5.924;2022-10-16T08:04:11;9.93;;;3.53;;
33076;SDS011;38790;51.964;5.924;2022-10-16T08:06:38;8.80;;;2.80;;
33076;SDS011;38790;51.964;5.924;2022-10-16T08:09:06;15.57;;;3.22;;
33076;SDS011;38790;51.964;5.924;2022-10-16T08:11:33;5.95;;;3.63;;
33076;SDS011;38790;51.964;5.924;2022-10-16T08:13:59;9.52;;;3.13;;
33076;SDS011;38790;51.964;5.924;2022-10-16T08:16:26;5.57;;;2.92;;
33076;SDS011;38790;51.964;5.924;2022-10-16T08:18:52;7.28;;;3.55;;
33076;SDS011;38790;51.964;5.924;2022-10-16T08:21:19;6.40;;;2.75;;
33076;SDS011;38790;51.964;5.924;2022-10-16T08:23:50;5.68;;;2.70;;
33076;SDS011;38790;51.964;5.924;2022-10-16T08:26:18;10.93;;;3.10;;
33076;SDS011;38790;51.964;5.924;2022-10-16T08:28:44;6.13;;;2.45;;
33076;SDS011;38790;51.964;5.924;2022-10-16T08:31:14;7.32;;;2.70;;
33076;SDS011;38790;51.964;5.924;2022-10-16T08:33:41;8.43;;;2.78;;
33076;SDS011;38790;51.964;5.924;2022-10-16T08:36:10;6.65;;;3.00;;
33076;SDS011;38790;51.964;5.924;2022-10-16T08:38:37;11.68;;;2.90;;
33076;SDS011;38790;51.964;5.924;2022-10-16T08:41:14;4.45;;;2.50;;
33076;SDS011;38790;51.964;5.924;2022-10-16T08:44:08;5.30;;;2.30;;
33076;SDS011;38790;51.964;5.924;2022-10-16T08:47:02;7.38;;;2.30;;
33076;SDS011;38790;51.964;5.924;2022-10-16T08:49:47;7.75;;;2.92;;
33076;SDS011;38790;51.964;5.924;2022-10-16T08:52:29;10.63;;;2.42;;
33076;SDS011;38790;51.964;5.924;2022-10-16T08:54:59;4.95;;;2.30;;
33076;SDS011;38790;51.964;5.924;2022-10-16T08:57:25;7.15;;;2.90;;
33076;SDS011;38790;51.964;5.924;2022-10-16T08:59:57;7.90;;;2.30;;
33076;SDS011;38790;51.964;5.924;2022-10-16T09:02:37;10.60;;;2.63;;
33076;SDS011;38790;51.964;5.924;2022-10-16T09:13:43;9.88;;;2.47;;
33076;SDS011;38790;51.964;5.924;2022-10-16T09:16:34;7.68;;;2.40;;
33076;SDS011;38790;51.964;5.924;2022-10-16T09:19:27;10.82;;;2.00;;
33076;SDS011;38790;51.964;5.924;2022-10-16T09:22:14;12.32;;;2.22;;
33076;SDS011;38790;51.964;5.924;2022-10-16T09:24:41;8.73;;;2.10;;
33076;SDS011;38790;51.964;5.924;2022-10-16T09:27:11;4.72;;;1.60;;
33076;SDS011;38790;51.964;5.924;2022-10-16T09:29:39;11.10;;;2.50;;
33076;SDS011;38790;51.964;5.924;2022-10-16T09:32:12;13.40;;;2.85;;
33076;SDS011;38790;51.964;5.924;2022-10-16T09:34:53;12.38;;;2.50;;
33076;SDS011;38790;51.964;5.924;2022-10-16T09:37:24;11.15;;;3.00;;
33076;SDS011;38790;51.964;5.924;2022-10-16T09:39:51;7.28;;;2.15;;
33076;SDS011;38790;51.964;5.924;2022-10-16T09:44:48;16.75;;;2.97;;
33076;SDS011;38790;51.964;5.924;2022-10-16T09:47:20;17.15;;;2.25;;
33076;SDS011;38790;51.964;5.924;2022-10-16T09:49:53;7.35;;;2.08;;
33076;SDS011;38790;51.964;5.924;2022-10-16T09:52:28;9.20;;;1.98;;
33076;SDS011;38790;51.964;5.924;2022-10-16T09:54:59;11.88;;;2.05;;
33076;SDS011;38790;51.964;5.924;2022-10-16T09:57:27;8.60;;;2.33;;
33076;SDS011;38790;51.964;5.924;2022-10-16T09:59:54;12.73;;;2.40;;
33076;SDS011;38790;51.964;5.924;2022-10-16T10:02:32;9.15;;;2.22;;
33076;SDS011;38790;51.964;5.924;2022-10-16T10:05:01;14.85;;;3.03;;
33076;SDS011;38790;51.964;5.924;2022-10-16T10:07:30;12.15;;;2.40;;
33076;SDS011;38790;51.964;5.924;2022-10-16T10:09:59;9.70;;;2.63;;
33076;SDS011;38790;51.964;5.924;2022-10-16T10:12:27;14.10;;;2.75;;
33076;SDS011;38790;51.964;5.924;2022-10-16T10:15:04;15.65;;;2.10;;
33076;SDS011;38790;51.964;5.924;2022-10-16T10:17:44;12.65;;;2.58;;
33076;SDS011;38790;51.964;5.924;2022-10-16T10:20:22;12.05;;;2.25;;
33076;SDS011;38790;51.964;5.924;2022-10-16T10:23:00;16.33;;;2.45;;
33076;SDS011;38790;51.964;5.924;2022-10-16T10:31:06;13.43;;;2.88;;
33076;SDS011;38790;51.964;5.924;2022-10-16T10:33:51;16.90;;;3.28;;
33076;SDS011;38790;51.964;5.924;2022-10-16T10:36:50;17.67;;;2.75;;
33076;SDS011;38790;51.964;5.924;2022-10-16T10:39:26;17.90;;;2.85;;
33076;SDS011;38790;51.964;5.924;2022-10-16T10:47:27;8.73;;;2.58;;
33076;SDS011;38790;51.964;5.924;2022-10-16T10:55:54;15.32;;;2.35;;
33076;SDS011;38790;51.964;5.924;2022-10-16T11:07:15;17.25;;;3.25;;
33076;SDS011;38790;51.964;5.924;2022-10-16T11:09:47;15.15;;;3.92;;
33076;SDS011;38790;51.964;5.924;2022-10-16T11:15:14;16.92;;;2.67;;
33076;SDS011;38790;51.964;5.924;2022-10-16T11:20:51;17.42;;;3.60;;
33076;SDS011;38790;51.964;5.924;2022-10-16T11:24:23;16.50;;;3.72;;
33076;SDS011;38790;51.964;5.924;2022-10-16T11:26:21;18.30;;;4.13;;
33076;SDS011;38790;51.964;5.924;2022-10-16T11:28:53;17.70;;;4.40;;
33076;SDS011;38790;51.964;5.924;2022-10-16T11:31:37;17.55;;;5.80;;
33076;SDS011;38790;51.964;5.924;2022-10-16T11:36:51;25.73;;;11.27;;
33076;SDS011;38790;51.964;5.924;2022-10-16T11:39:19;10.38;;;3.00;;
33076;SDS011;38790;51.964;5.924;2022-10-16T11:41:50;12.13;;;2.83;;
33076;SDS011;38790;51.964;5.924;2022-10-16T11:44:38;20.40;;;3.97;;
33076;SDS011;38790;51.964;5.924;2022-10-16T11:49:49;12.93;;;2.80;;
33076;SDS011;38790;51.964;5.924;2022-10-16T12:00:08;15.23;;;2.65;;
33076;SDS011;38790;51.964;5.924;2022-10-16T12:08:38;12.20;;;2.80;;
33076;SDS011;38790;51.964;5.924;2022-10-16T12:13:49;11.85;;;3.08;;
33076;SDS011;38790;51.964;5.924;2022-10-16T12:18:43;9.45;;;2.83;;
33076;SDS011;38790;51.964;5.924;2022-10-16T12:21:10;19.75;;;6.22;;
33076;SDS011;38790;51.964;5.924;2022-10-16T12:26:26;19.27;;;4.50;;
33076;SDS011;38790;51.964;5.924;2022-10-16T12:28:55;20.17;;;4.88;;
33076;SDS011;38790;51.964;5.924;2022-10-16T12:31:39;13.43;;;2.63;;
33076;SDS011;38790;51.964;5.924;2022-10-16T12:36:52;10.02;;;3.03;;
33076;SDS011;38790;51.964;5.924;2022-10-16T12:39:23;21.30;;;5.80;;
33076;SDS011;38790;51.964;5.924;2022-10-16T12:44:52;12.48;;;4.72;;
33076;SDS011;38790;51.964;5.924;2022-10-16T12:47:21;10.18;;;4.10;;
33076;SDS011;38790;51.964;5.924;2022-10-16T12:52:49;9.27;;;3.20;;
33076;SDS011;38790;51.964;5.924;2022-10-16T12:55:16;13.98;;;3.03;;
33076;SDS011;38790;51.964;5.924;2022-10-16T12:57:56;12.10;;;2.58;;
33076;SDS011;38790;51.964;5.924;2022-10-16T13:05:38;23.73;;;4.95;;
33076;SDS011;38790;51.964;5.924;2022-10-16T13:08:36;12.25;;;3.03;;
33076;SDS011;38790;51.964;5.924;2022-10-16T13:11:06;14.07;;;3.38;;
33076;SDS011;38790;51.964;5.924;2022-10-16T13:16:44;24.60;;;6.75;;
33076;SDS011;38790;51.964;5.924;2022-10-16T13:19:43;12.65;;;3.70;;
33076;SDS011;38790;51.964;5.924;2022-10-16T13:22:50;18.10;;;3.88;;
33076;SDS011;38790;51.964;5.924;2022-10-16T13:25:45;20.48;;;3.05;;
33076;SDS011;38790;51.964;5.924;2022-10-16T13:28:27;14.98;;;2.88;;
33076;SDS011;38790;51.964;5.924;2022-10-16T13:30:59;14.05;;;2.80;;
33076;SDS011;38790;51.964;5.924;2022-10-16T13:33:30;12.82;;;2.22;;
33076;SDS011;38790;51.964;5.924;2022-10-16T13:36:05;26.35;;;2.88;;
33076;SDS011;38790;51.964;5.924;2022-10-16T13:38:35;14.05;;;2.15;;
33076;SDS011;38790;51.964;5.924;2022-10-16T13:41:15;12.90;;;2.40;;
33076;SDS011;38790;51.964;5.924;2022-10-16T13:43:49;12.60;;;2.45;;
33076;SDS011;38790;51.964;5.924;2022-10-16T13:46:19;14.23;;;2.42;;
33076;SDS011;38790;51.964;5.924;2022-10-16T13:49:00;17.52;;;2.63;;
33076;SDS011;38790;51.964;5.924;2022-10-16T13:51:28;12.07;;;3.05;;
33076;SDS011;38790;51.964;5.924;2022-10-16T13:53:55;14.00;;;2.35;;
33076;SDS011;38790;51.964;5.924;2022-10-16T13:56:25;17.65;;;2.95;;
33076;SDS011;38790;51.964;5.924;2022-10-16T13:59:05;17.02;;;2.45;;
33076;SDS011;38790;51.964;5.924;2022-10-16T14:01:47;11.90;;;2.72;;
33076;SDS011;38790;51.964;5.924;2022-10-16T14:04:14;15.48;;;2.80;;
33076;SDS011;38790;51.964;5.924;2022-10-16T14:06:42;10.70;;;2.45;;
33076;SDS011;38790;51.964;5.924;2022-10-16T14:11:46;22.08;;;4.25;;
33076;SDS011;38790;51.964;5.924;2022-10-16T14:14:17;9.45;;;2.63;;
33076;SDS011;38790;51.964;5.924;2022-10-16T14:16:44;14.10;;;2.42;;
33076;SDS011;38790;51.964;5.924;2022-10-16T14:19:20;15.52;;;3.17;;
33076;SDS011;38790;51.964;5.924;2022-10-16T14:21:52;11.93;;;2.22;;
33076;SDS011;38790;51.964;5.924;2022-10-16T14:24:24;29.23;;;4.00;;
33076;SDS011;38790;51.964;5.924;2022-10-16T14:26:51;19.42;;;2.67;;
33076;SDS011;38790;51.964;5.924;2022-10-16T14:29:20;15.77;;;2.35;;
33076;SDS011;38790;51.964;5.924;2022-10-16T14:31:56;18.48;;;2.70;;
33076;SDS011;38790;51.964;5.924;2022-10-16T14:34:24;8.77;;;2.25;;
33076;SDS011;38790;51.964;5.924;2022-10-16T14:36:53;27.52;;;4.90;;
33076;SDS011;38790;51.964;5.924;2022-10-16T14:39:21;31.80;;;5.95;;
33076;SDS011;38790;51.964;5.924;2022-10-16T14:41:51;20.80;;;3.20;;
33076;SDS011;38790;51.964;5.924;2022-10-16T14:44:21;17.85;;;2.78;;
33076;SDS011;38790;51.964;5.924;2022-10-16T14:46:56;16.67;;;2.70;;
33076;SDS011;38790;51.964;5.924;2022-10-16T14:49:23;12.55;;;2.28;;
33076;SDS011;38790;51.964;5.924;2022-10-16T14:51:49;11.38;;;2.60;;
33076;SDS011;38790;51.964;5.924;2022-10-16T14:54:17;11.02;;;2.17;;
33076;SDS011;38790;51.964;5.924;2022-10-16T14:59:18;12.90;;;2.42;;
33076;SDS011;38790;51.964;5.924;2022-10-16T15:04:49;17.85;;;7.50;;
33076;SDS011;38790;51.964;5.924;2022-10-16T15:07:15;11.90;;;2.83;;
33076;SDS011;38790;51.964;5.924;2022-10-16T15:09:41;19.17;;;2.65;;
33076;SDS011;38790;51.964;5.924;2022-10-16T15:12:07;16.52;;;2.25;;
33076;SDS011;38790;51.964;5.924;2022-10-16T15:14:33;12.60;;;2.80;;
33076;SDS011;38790;51.964;5.924;2022-10-16T15:16:59;9.65;;;2.00;;
33076;SDS011;38790;51.964;5.924;2022-10-16T15:19:26;18.27;;;2.67;;
33076;SDS011;38790;51.964;5.924;2022-10-16T15:21:52;12.88;;;2.50;;
33076;SDS011;38790;51.964;5.924;2022-10-16T15:24:18;13.88;;;2.65;;
33076;SDS011;38790;51.964;5.924;2022-10-16T15:26:44;9.75;;;2.22;;
33076;SDS011;38790;51.964;5.924;2022-10-16T15:29:14;10.25;;;2.67;;
33076;SDS011;38790;51.964;5.924;2022-10-16T15:31:41;13.77;;;2.28;;
33076;SDS011;38790;51.964;5.924;2022-10-16T15:34:12;4.40;;;1.70;;
33076;SDS011;38790;51.964;5.924;2022-10-16T15:36:39;11.90;;;3.65;;
33076;SDS011;38790;51.964;5.924;2022-10-16T15:39:10;12.68;;;2.15;;
33076;SDS011;38790;51.964;5.924;2022-10-16T15:41:39;20.45;;;2.75;;
33076;SDS011;38790;51.964;5.924;2022-10-16T15:44:05;12.35;;;2.63;;
33076;SDS011;38790;51.964;5.924;2022-10-16T15:46:31;17.83;;;3.03;;
33076;SDS011;38790;51.964;5.924;2022-10-16T15:48:59;8.48;;;2.10;;
33076;SDS011;38790;51.964;5.924;2022-10-16T15:51:26;11.23;;;2.50;;
33076;SDS011;38790;51.964;5.924;2022-10-16T15:53:58;10.60;;;2.47;;
33076;SDS011;38790;51.964;5.924;2022-10-16T15:56:27;18.48;;;3.03;;
33076;SDS011;38790;51.964;5.924;2022-10-16T15:58:54;13.05;;;2.55;;
33076;SDS011;38790;51.964;5.924;2022-10-16T16:01:20;12.50;;;2.25;;
33076;SDS011;38790;51.964;5.924;2022-10-16T16:03:47;11.82;;;2.80;;
33076;SDS011;38790;51.964;5.924;2022-10-16T16:06:13;15.50;;;2.60;;
33076;SDS011;38790;51.964;5.924;2022-10-16T16:08:40;16.98;;;2.72;;
33076;SDS011;38790;51.964;5.924;2022-10-16T16:11:08;15.02;;;2.72;;
33076;SDS011;38790;51.964;5.924;2022-10-16T16:13:38;15.88;;;3.00;;
33076;SDS011;38790;51.964;5.924;2022-10-16T16:16:09;10.32;;;2.10;;
33076;SDS011;38790;51.964;5.924;2022-10-16T16:18:37;15.18;;;2.70;;
33076;SDS011;38790;51.964;5.924;2022-10-16T16:21:03;16.70;;;3.05;;
33076;SDS011;38790;51.964;5.924;2022-10-16T16:23:30;14.73;;;2.28;;
33076;SDS011;38790;51.964;5.924;2022-10-16T16:26:04;10.90;;;3.10;;
33076;SDS011;38790;51.964;5.924;2022-10-16T16:28:49;13.05;;;2.10;;
33076;SDS011;38790;51.964;5.924;2022-10-16T16:31:15;9.00;;;2.17;;
33076;SDS011;38790;51.964;5.924;2022-10-16T16:33:41;12.52;;;2.45;;
33076;SDS011;38790;51.964;5.924;2022-10-16T16:36:08;9.43;;;2.78;;
33076;SDS011;38790;51.964;5.924;2022-10-16T16:38:34;10.45;;;2.10;;
33076;SDS011;38790;51.964;5.924;2022-10-16T16:41:10;10.18;;;2.20;;
33076;SDS011;38790;51.964;5.924;2022-10-16T16:43:40;11.52;;;2.28;;